sensor_id;sensor_type;location;lat;lon;timestamp;P1;durP1;ratioP1;P2;durP2;ratioP2
65275;SDS011;51875;49.994;14.052;2022-08-21T11:48:40;5.15;;;4.15;;
65275;SDS011;51875;49.994;14.052;2022-08-21T11:50:23;4.20;;;3.72;;
65275;SDS011;51875;49.994;14.052;2022-08-21T11:51:44;4.10;;;3.70;;
65275;SDS011;51875;49.994;14.052;2022-08-21T11:53:14;4.35;;;3.65;;
65275;SDS011;51875;49.994;14.052;2022-08-21T11:54:34;5.88;;;3.53;;
65275;SDS011;51875;49.994;14.052;2022-08-21T11:55:59;4.78;;;3.80;;
65275;SDS011;51875;49.994;14.052;2022-08-21T11:58:51;4.63;;;3.83;;
65275;SDS011;51875;49.994;14.052;2022-08-21T12:01:37;5.78;;;3.67;;
65275;SDS011;51875;49.994;14.052;2022-08-21T12:03:04;4.75;;;3.95;;
65275;SDS011;51875;49.994;14.052;2022-08-21T12:04:30;6.18;;;4.03;;
65275;SDS011;51875;49.994;14.052;2022-08-21T12:05:53;5.57;;;4.07;;
65275;SDS011;51875;49.994;14.052;2022-08-21T12:07:17;6.05;;;4.50;;
65275;SDS011;51875;49.994;14.052;2022-08-21T12:08:45;6.75;;;4.28;;
65275;SDS011;51875;49.994;14.052;2022-08-21T12:10:13;4.63;;;4.13;;
65275;SDS011;51875;49.994;14.052;2022-08-21T12:11:31;4.75;;;4.30;;
65275;SDS011;51875;49.994;14.052;2022-08-21T12:12:47;4.55;;;3.78;;
65275;SDS011;51875;49.994;14.052;2022-08-21T12:16:38;5.63;;;3.85;;
65275;SDS011;51875;49.994;14.052;2022-08-21T12:18:02;6.53;;;4.13;;
65275;SDS011;51875;49.994;14.052;2022-08-21T12:22:36;4.18;;;3.28;;
65275;SDS011;51875;49.994;14.052;2022-08-21T12:25:36;5.13;;;3.85;;
65275;SDS011;51875;49.994;14.052;2022-08-21T12:27:00;4.93;;;3.80;;
65275;SDS011;51875;49.994;14.052;2022-08-21T12:28:32;4.20;;;3.75;;
65275;SDS011;51875;49.994;14.052;2022-08-21T12:29:49;5.50;;;3.90;;
65275;SDS011;51875;49.994;14.052;2022-08-21T12:31:27;4.25;;;3.67;;
65275;SDS011;51875;49.994;14.052;2022-08-21T12:32:44;6.03;;;4.25;;
65275;SDS011;51875;49.994;14.052;2022-08-21T12:34:02;5.97;;;3.60;;
65275;SDS011;51875;49.994;14.052;2022-08-21T12:35:26;4.75;;;3.22;;
65275;SDS011;51875;49.994;14.052;2022-08-21T12:36:48;4.03;;;3.20;;
65275;SDS011;51875;49.994;14.052;2022-08-21T12:39:34;3.22;;;2.88;;
65275;SDS011;51875;49.994;14.052;2022-08-21T12:40:57;3.50;;;2.92;;
65275;SDS011;51875;49.994;14.052;2022-08-21T12:42:18;3.35;;;3.00;;
65275;SDS011;51875;49.994;14.052;2022-08-21T12:43:51;4.28;;;3.50;;
65275;SDS011;51875;49.994;14.052;2022-08-21T12:46:56;4.47;;;3.10;;
65275;SDS011;51875;49.994;14.052;2022-08-21T12:49:37;4.20;;;3.15;;
65275;SDS011;51875;49.994;14.052;2022-08-21T12:52:44;6.35;;;3.22;;
65275;SDS011;51875;49.994;14.052;2022-08-21T12:54:26;4.70;;;3.22;;
65275;SDS011;51875;49.994;14.052;2022-08-21T12:55:44;4.15;;;3.47;;
65275;SDS011;51875;49.994;14.052;2022-08-21T12:57:01;4.07;;;3.05;;
65275;SDS011;51875;49.994;14.052;2022-08-21T12:58:22;5.40;;;3.15;;
65275;SDS011;51875;49.994;14.052;2022-08-21T12:59:39;5.72;;;3.40;;
65275;SDS011;51875;49.994;14.052;2022-08-21T13:01:08;4.63;;;3.28;;
65275;SDS011;51875;49.994;14.052;2022-08-21T13:02:38;4.72;;;3.15;;
65275;SDS011;51875;49.994;14.052;2022-08-21T13:03:58;5.30;;;3.15;;
65275;SDS011;51875;49.994;14.052;2022-08-21T13:05:34;5.53;;;3.40;;
65275;SDS011;51875;49.994;14.052;2022-08-21T13:06:53;5.18;;;3.30;;
65275;SDS011;51875;49.994;14.052;2022-08-21T13:08:13;3.90;;;3.30;;
65275;SDS011;51875;49.994;14.052;2022-08-21T13:09:29;4.95;;;3.08;;
65275;SDS011;51875;49.994;14.052;2022-08-21T13:10:46;6.03;;;3.40;;
65275;SDS011;51875;49.994;14.052;2022-08-21T13:12:06;4.35;;;3.30;;
65275;SDS011;51875;49.994;14.052;2022-08-21T13:13:24;7.32;;;3.80;;
65275;SDS011;51875;49.994;14.052;2022-08-21T13:14:42;5.80;;;3.35;;
65275;SDS011;51875;49.994;14.052;2022-08-21T13:16:03;5.63;;;3.00;;
65275;SDS011;51875;49.994;14.052;2022-08-21T13:17:21;3.20;;;2.90;;
65275;SDS011;51875;49.994;14.052;2022-08-21T13:18:51;6.38;;;3.40;;
65275;SDS011;51875;49.994;14.052;2022-08-21T13:20:25;4.00;;;2.97;;
65275;SDS011;51875;49.994;14.052;2022-08-21T13:21:43;3.63;;;2.88;;
65275;SDS011;51875;49.994;14.052;2022-08-21T13:23:00;4.32;;;3.03;;
65275;SDS011;51875;49.994;14.052;2022-08-21T13:25:39;4.28;;;2.70;;
65275;SDS011;51875;49.994;14.052;2022-08-21T13:26:55;4.15;;;2.72;;
65275;SDS011;51875;49.994;14.052;2022-08-21T13:28:12;5.28;;;2.90;;
65275;SDS011;51875;49.994;14.052;2022-08-21T13:29:31;3.72;;;2.60;;
65275;SDS011;51875;49.994;14.052;2022-08-21T13:30:53;5.80;;;3.33;;
65275;SDS011;51875;49.994;14.052;2022-08-21T13:32:13;3.85;;;2.95;;
65275;SDS011;51875;49.994;14.052;2022-08-21T13:33:36;3.65;;;2.90;;
65275;SDS011;51875;49.994;14.052;2022-08-21T13:34:54;5.45;;;2.80;;
65275;SDS011;51875;49.994;14.052;2022-08-21T13:37:29;5.38;;;3.08;;
65275;SDS011;51875;49.994;14.052;2022-08-21T13:38:44;8.75;;;2.90;;
65275;SDS011;51875;49.994;14.052;2022-08-21T13:40:01;4.82;;;2.90;;
65275;SDS011;51875;49.994;14.052;2022-08-21T13:41:21;4.35;;;2.88;;
65275;SDS011;51875;49.994;14.052;2022-08-21T13:42:41;5.75;;;2.60;;
65275;SDS011;51875;49.994;14.052;2022-08-21T13:44:01;4.30;;;2.45;;
65275;SDS011;51875;49.994;14.052;2022-08-21T13:45:23;5.10;;;2.60;;
65275;SDS011;51875;49.994;14.052;2022-08-21T13:46:41;3.17;;;2.40;;
65275;SDS011;51875;49.994;14.052;2022-08-21T13:47:58;3.80;;;2.60;;
65275;SDS011;51875;49.994;14.052;2022-08-21T13:49:17;4.53;;;2.60;;
65275;SDS011;51875;49.994;14.052;2022-08-21T13:50:35;5.75;;;2.50;;
65275;SDS011;51875;49.994;14.052;2022-08-21T13:51:53;2.53;;;2.33;;
65275;SDS011;51875;49.994;14.052;2022-08-21T13:53:20;3.55;;;2.58;;
65275;SDS011;51875;49.994;14.052;2022-08-21T13:54:39;7.03;;;2.67;;
65275;SDS011;51875;49.994;14.052;2022-08-21T13:55:56;18.35;;;2.55;;
65275;SDS011;51875;49.994;14.052;2022-08-21T13:57:17;4.28;;;2.42;;
65275;SDS011;51875;49.994;14.052;2022-08-21T13:58:42;5.70;;;2.78;;
65275;SDS011;51875;49.994;14.052;2022-08-21T14:01:39;2.55;;;2.13;;
65275;SDS011;51875;49.994;14.052;2022-08-21T14:03:09;4.50;;;2.22;;
65275;SDS011;51875;49.994;14.052;2022-08-21T14:04:33;4.28;;;2.40;;
65275;SDS011;51875;49.994;14.052;2022-08-21T14:05:52;2.95;;;2.30;;
65275;SDS011;51875;49.994;14.052;2022-08-21T14:07:24;3.35;;;2.40;;
65275;SDS011;51875;49.994;14.052;2022-08-21T14:08:59;3.08;;;2.17;;
65275;SDS011;51875;49.994;14.052;2022-08-21T14:10:22;4.72;;;2.00;;
65275;SDS011;51875;49.994;14.052;2022-08-21T14:11:39;3.88;;;2.30;;
65275;SDS011;51875;49.994;14.052;2022-08-21T14:12:59;4.03;;;2.25;;
65275;SDS011;51875;49.994;14.052;2022-08-21T14:14:31;3.33;;;2.25;;
65275;SDS011;51875;49.994;14.052;2022-08-21T14:15:54;3.40;;;1.98;;
65275;SDS011;51875;49.994;14.052;2022-08-21T14:17:13;4.20;;;2.30;;
65275;SDS011;51875;49.994;14.052;2022-08-21T14:18:44;3.10;;;2.33;;
65275;SDS011;51875;49.994;14.052;2022-08-21T14:20:02;4.90;;;2.38;;
65275;SDS011;51875;49.994;14.052;2022-08-21T14:21:29;3.90;;;2.13;;
65275;SDS011;51875;49.994;14.052;2022-08-21T14:23:01;3.95;;;2.30;;
65275;SDS011;51875;49.994;14.052;2022-08-21T14:25:44;2.88;;;1.83;;
65275;SDS011;51875;49.994;14.052;2022-08-21T14:27:02;2.75;;;2.10;;
65275;SDS011;51875;49.994;14.052;2022-08-21T14:28:26;6.47;;;2.05;;
65275;SDS011;51875;49.994;14.052;2022-08-21T14:29:46;4.80;;;2.30;;
65275;SDS011;51875;49.994;14.052;2022-08-21T14:31:16;3.20;;;2.15;;
65275;SDS011;51875;49.994;14.052;2022-08-21T14:32:38;4.07;;;2.30;;
65275;SDS011;51875;49.994;14.052;2022-08-21T14:33:55;2.70;;;2.20;;
65275;SDS011;51875;49.994;14.052;2022-08-21T14:35:11;4.18;;;2.50;;
65275;SDS011;51875;49.994;14.052;2022-08-21T14:36:28;6.35;;;2.28;;
65275;SDS011;51875;49.994;14.052;2022-08-21T14:37:44;5.63;;;2.65;;
65275;SDS011;51875;49.994;14.052;2022-08-21T14:39:00;5.85;;;2.58;;
65275;SDS011;51875;49.994;14.052;2022-08-21T14:40:16;8.10;;;2.40;;
65275;SDS011;51875;49.994;14.052;2022-08-21T14:41:32;3.70;;;2.30;;
65275;SDS011;51875;49.994;14.052;2022-08-21T14:42:48;2.67;;;2.30;;
65275;SDS011;51875;49.994;14.052;2022-08-21T14:44:04;4.10;;;2.60;;
65275;SDS011;51875;49.994;14.052;2022-08-21T14:46:43;2.85;;;2.15;;
65275;SDS011;51875;49.994;14.052;2022-08-21T14:47:59;5.38;;;2.50;;
65275;SDS011;51875;49.994;14.052;2022-08-21T14:49:15;3.67;;;2.15;;
65275;SDS011;51875;49.994;14.052;2022-08-21T14:50:31;3.75;;;2.55;;
65275;SDS011;51875;49.994;14.052;2022-08-21T14:51:48;4.18;;;2.22;;
65275;SDS011;51875;49.994;14.052;2022-08-21T14:53:08;2.88;;;2.20;;
65275;SDS011;51875;49.994;14.052;2022-08-21T14:54:25;4.05;;;2.20;;
65275;SDS011;51875;49.994;14.052;2022-08-21T14:55:44;2.42;;;2.08;;
65275;SDS011;51875;49.994;14.052;2022-08-21T14:57:32;3.20;;;2.22;;
65275;SDS011;51875;49.994;14.052;2022-08-21T14:58:49;5.30;;;2.22;;
65275;SDS011;51875;49.994;14.052;2022-08-21T15:00:07;3.63;;;2.40;;
65275;SDS011;51875;49.994;14.052;2022-08-21T15:01:23;3.63;;;2.08;;
65275;SDS011;51875;49.994;14.052;2022-08-21T15:02:39;4.32;;;2.10;;
65275;SDS011;51875;49.994;14.052;2022-08-21T15:03:54;4.45;;;2.10;;
65275;SDS011;51875;49.994;14.052;2022-08-21T15:05:10;3.78;;;2.03;;
65275;SDS011;51875;49.994;14.052;2022-08-21T15:06:26;6.25;;;2.35;;
65275;SDS011;51875;49.994;14.052;2022-08-21T15:07:41;4.07;;;2.17;;
65275;SDS011;51875;49.994;14.052;2022-08-21T15:08:57;3.72;;;2.50;;
65275;SDS011;51875;49.994;14.052;2022-08-21T15:10:13;4.15;;;2.20;;
65275;SDS011;51875;49.994;14.052;2022-08-21T15:11:28;3.65;;;2.45;;
65275;SDS011;51875;49.994;14.052;2022-08-21T15:12:45;4.53;;;2.45;;
65275;SDS011;51875;49.994;14.052;2022-08-21T15:14:01;3.63;;;2.40;;
65275;SDS011;51875;49.994;14.052;2022-08-21T15:15:18;3.92;;;2.08;;
65275;SDS011;51875;49.994;14.052;2022-08-21T15:16:34;3.97;;;1.88;;
65275;SDS011;51875;49.994;14.052;2022-08-21T15:17:50;3.85;;;2.30;;
65275;SDS011;51875;49.994;14.052;2022-08-21T15:19:06;3.17;;;2.20;;
65275;SDS011;51875;49.994;14.052;2022-08-21T15:20:21;4.85;;;2.38;;
65275;SDS011;51875;49.994;14.052;2022-08-21T15:21:37;2.97;;;2.25;;
65275;SDS011;51875;49.994;14.052;2022-08-21T15:22:52;5.28;;;2.53;;
65275;SDS011;51875;49.994;14.052;2022-08-21T15:24:08;3.47;;;2.28;;
65275;SDS011;51875;49.994;14.052;2022-08-21T15:25:24;3.08;;;2.15;;
65275;SDS011;51875;49.994;14.052;2022-08-21T15:26:39;4.13;;;2.22;;
65275;SDS011;51875;49.994;14.052;2022-08-21T15:27:55;3.35;;;2.30;;
65275;SDS011;51875;49.994;14.052;2022-08-21T15:29:11;4.65;;;2.20;;
65275;SDS011;51875;49.994;14.052;2022-08-21T15:30:27;2.92;;;2.20;;
65275;SDS011;51875;49.994;14.052;2022-08-21T15:31:52;5.60;;;2.35;;
65275;SDS011;51875;49.994;14.052;2022-08-21T15:33:11;7.45;;;2.30;;
65275;SDS011;51875;49.994;14.052;2022-08-21T15:34:27;3.00;;;2.03;;
65275;SDS011;51875;49.994;14.052;2022-08-21T15:35:45;2.92;;;2.10;;
65275;SDS011;51875;49.994;14.052;2022-08-21T15:37:01;2.92;;;2.10;;
65275;SDS011;51875;49.994;14.052;2022-08-21T15:38:16;4.65;;;2.60;;
65275;SDS011;51875;49.994;14.052;2022-08-21T15:39:32;4.40;;;2.13;;
65275;SDS011;51875;49.994;14.052;2022-08-21T15:40:48;5.32;;;2.50;;
65275;SDS011;51875;49.994;14.052;2022-08-21T15:42:04;5.05;;;2.50;;
65275;SDS011;51875;49.994;14.052;2022-08-21T15:43:27;3.40;;;2.08;;
65275;SDS011;51875;49.994;14.052;2022-08-21T15:44:46;4.63;;;2.20;;
65275;SDS011;51875;49.994;14.052;2022-08-21T15:46:02;3.35;;;2.47;;
65275;SDS011;51875;49.994;14.052;2022-08-21T15:47:19;3.63;;;2.03;;
65275;SDS011;51875;49.994;14.052;2022-08-21T15:48:37;3.83;;;2.17;;
65275;SDS011;51875;49.994;14.052;2022-08-21T15:49:53;3.90;;;2.72;;
65275;SDS011;51875;49.994;14.052;2022-08-21T15:51:12;3.42;;;2.00;;
65275;SDS011;51875;49.994;14.052;2022-08-21T15:52:28;4.82;;;2.22;;
65275;SDS011;51875;49.994;14.052;2022-08-21T15:53:44;3.50;;;2.00;;
65275;SDS011;51875;49.994;14.052;2022-08-21T15:55:01;2.42;;;2.10;;
65275;SDS011;51875;49.994;14.052;2022-08-21T15:56:20;2.97;;;1.90;;
65275;SDS011;51875;49.994;14.052;2022-08-21T15:57:42;2.90;;;1.90;;
65275;SDS011;51875;49.994;14.052;2022-08-21T15:59:02;2.20;;;1.80;;
65275;SDS011;51875;49.994;14.052;2022-08-21T16:00:22;5.32;;;2.22;;
65275;SDS011;51875;49.994;14.052;2022-08-21T16:01:38;3.05;;;2.00;;
65275;SDS011;51875;49.994;14.052;2022-08-21T16:02:55;4.28;;;2.10;;
65275;SDS011;51875;49.994;14.052;2022-08-21T16:04:22;5.35;;;2.15;;
65275;SDS011;51875;49.994;14.052;2022-08-21T16:05:40;2.42;;;2.10;;
65275;SDS011;51875;49.994;14.052;2022-08-21T16:06:57;2.67;;;2.20;;
65275;SDS011;51875;49.994;14.052;2022-08-21T16:08:12;4.57;;;2.00;;
65275;SDS011;51875;49.994;14.052;2022-08-21T16:09:28;4.70;;;2.00;;
65275;SDS011;51875;49.994;14.052;2022-08-21T16:10:44;2.67;;;1.90;;
65275;SDS011;51875;49.994;14.052;2022-08-21T16:11:59;3.28;;;1.85;;
65275;SDS011;51875;49.994;14.052;2022-08-21T16:13:23;5.80;;;2.20;;
65275;SDS011;51875;49.994;14.052;2022-08-21T16:14:42;3.78;;;2.10;;
65275;SDS011;51875;49.994;14.052;2022-08-21T16:15:58;3.53;;;2.28;;
65275;SDS011;51875;49.994;14.052;2022-08-21T16:17:14;3.05;;;1.90;;
65275;SDS011;51875;49.994;14.052;2022-08-21T16:18:30;2.83;;;1.92;;
65275;SDS011;51875;49.994;14.052;2022-08-21T16:19:46;3.35;;;2.05;;
65275;SDS011;51875;49.994;14.052;2022-08-21T16:21:02;3.35;;;2.20;;
65275;SDS011;51875;49.994;14.052;2022-08-21T16:22:17;3.35;;;2.15;;
65275;SDS011;51875;49.994;14.052;2022-08-21T16:23:33;3.05;;;1.70;;
65275;SDS011;51875;49.994;14.052;2022-08-21T16:24:50;4.72;;;2.20;;
65275;SDS011;51875;49.994;14.052;2022-08-21T16:26:06;6.32;;;2.17;;
65275;SDS011;51875;49.994;14.052;2022-08-21T16:27:23;4.32;;;1.90;;
65275;SDS011;51875;49.994;14.052;2022-08-21T16:28:39;2.15;;;1.92;;
65275;SDS011;51875;49.994;14.052;2022-08-21T16:29:57;3.83;;;1.80;;
65275;SDS011;51875;49.994;14.052;2022-08-21T16:31:13;5.32;;;1.83;;
65275;SDS011;51875;49.994;14.052;2022-08-21T16:32:29;4.57;;;2.03;;
65275;SDS011;51875;49.994;14.052;2022-08-21T16:33:47;5.65;;;2.10;;
65275;SDS011;51875;49.994;14.052;2022-08-21T16:35:04;4.47;;;1.75;;
65275;SDS011;51875;49.994;14.052;2022-08-21T16:36:20;3.35;;;1.63;;
65275;SDS011;51875;49.994;14.052;2022-08-21T16:37:36;4.20;;;2.20;;
65275;SDS011;51875;49.994;14.052;2022-08-21T16:38:52;3.80;;;1.60;;
65275;SDS011;51875;49.994;14.052;2022-08-21T16:40:09;2.80;;;1.70;;
65275;SDS011;51875;49.994;14.052;2022-08-21T16:41:26;3.05;;;1.90;;
65275;SDS011;51875;49.994;14.052;2022-08-21T16:42:45;3.65;;;1.83;;
65275;SDS011;51875;49.994;14.052;2022-08-21T16:44:01;5.25;;;1.88;;
65275;SDS011;51875;49.994;14.052;2022-08-21T16:45:19;6.50;;;1.70;;
65275;SDS011;51875;49.994;14.052;2022-08-21T16:46:37;3.35;;;1.80;;
65275;SDS011;51875;49.994;14.052;2022-08-21T16:47:54;3.92;;;1.98;;
65275;SDS011;51875;49.994;14.052;2022-08-21T16:49:09;6.90;;;1.90;;
65275;SDS011;51875;49.994;14.052;2022-08-21T16:50:25;3.55;;;1.85;;
65275;SDS011;51875;49.994;14.052;2022-08-21T16:51:41;3.28;;;1.77;;
65275;SDS011;51875;49.994;14.052;2022-08-21T16:52:57;3.75;;;1.70;;
65275;SDS011;51875;49.994;14.052;2022-08-21T16:54:13;4.60;;;1.98;;
65275;SDS011;51875;49.994;14.052;2022-08-21T16:55:28;3.30;;;1.90;;
65275;SDS011;51875;49.994;14.052;2022-08-21T16:56:44;2.55;;;2.00;;
65275;SDS011;51875;49.994;14.052;2022-08-21T16:58:01;3.67;;;1.85;;
65275;SDS011;51875;49.994;14.052;2022-08-21T16:59:19;3.00;;;2.10;;
65275;SDS011;51875;49.994;14.052;2022-08-21T17:00:34;2.42;;;1.73;;
65275;SDS011;51875;49.994;14.052;2022-08-21T17:01:50;4.43;;;2.00;;
65275;SDS011;51875;49.994;14.052;2022-08-21T17:03:08;4.68;;;2.13;;
65275;SDS011;51875;49.994;14.052;2022-08-21T17:04:28;5.28;;;1.80;;
65275;SDS011;51875;49.994;14.052;2022-08-21T17:05:45;6.68;;;2.08;;
65275;SDS011;51875;49.994;14.052;2022-08-21T17:07:01;4.30;;;2.13;;
65275;SDS011;51875;49.994;14.052;2022-08-21T17:08:16;4.22;;;2.45;;
65275;SDS011;51875;49.994;14.052;2022-08-21T17:09:32;5.35;;;2.15;;
65275;SDS011;51875;49.994;14.052;2022-08-21T17:10:48;2.72;;;1.58;;
65275;SDS011;51875;49.994;14.052;2022-08-21T17:12:04;6.55;;;2.00;;
65275;SDS011;51875;49.994;14.052;2022-08-21T17:13:21;5.03;;;1.90;;
65275;SDS011;51875;49.994;14.052;2022-08-21T17:14:37;5.20;;;2.10;;
65275;SDS011;51875;49.994;14.052;2022-08-21T17:15:53;2.00;;;1.80;;
65275;SDS011;51875;49.994;14.052;2022-08-21T17:17:09;7.07;;;2.05;;
65275;SDS011;51875;49.994;14.052;2022-08-21T17:18:25;3.22;;;1.83;;
65275;SDS011;51875;49.994;14.052;2022-08-21T17:19:42;5.22;;;1.80;;
65275;SDS011;51875;49.994;14.052;2022-08-21T17:20:58;3.35;;;1.95;;
65275;SDS011;51875;49.994;14.052;2022-08-21T17:22:13;3.70;;;1.92;;
65275;SDS011;51875;49.994;14.052;2022-08-21T17:23:29;5.43;;;2.10;;
65275;SDS011;51875;49.994;14.052;2022-08-21T17:24:44;3.70;;;2.03;;
65275;SDS011;51875;49.994;14.052;2022-08-21T17:26:00;4.63;;;2.08;;
65275;SDS011;51875;49.994;14.052;2022-08-21T17:27:16;3.25;;;2.20;;
65275;SDS011;51875;49.994;14.052;2022-08-21T17:28:35;3.35;;;1.70;;
65275;SDS011;51875;49.994;14.052;2022-08-21T17:29:52;4.65;;;1.90;;
65275;SDS011;51875;49.994;14.052;2022-08-21T17:31:10;4.43;;;1.75;;
65275;SDS011;51875;49.994;14.052;2022-08-21T17:32:27;6.22;;;2.00;;
65275;SDS011;51875;49.994;14.052;2022-08-21T17:33:46;2.70;;;1.92;;
65275;SDS011;51875;49.994;14.052;2022-08-21T17:35:07;6.72;;;2.15;;
65275;SDS011;51875;49.994;14.052;2022-08-21T17:36:24;2.85;;;1.98;;
65275;SDS011;51875;49.994;14.052;2022-08-21T17:37:42;4.97;;;1.92;;
65275;SDS011;51875;49.994;14.052;2022-08-21T17:38:58;5.63;;;2.28;;
65275;SDS011;51875;49.994;14.052;2022-08-21T17:40:14;3.08;;;1.80;;
65275;SDS011;51875;49.994;14.052;2022-08-21T17:41:31;7.50;;;1.95;;
65275;SDS011;51875;49.994;14.052;2022-08-21T17:42:48;4.30;;;1.90;;
65275;SDS011;51875;49.994;14.052;2022-08-21T17:44:04;3.90;;;2.05;;
65275;SDS011;51875;49.994;14.052;2022-08-21T17:45:23;3.28;;;2.08;;
65275;SDS011;51875;49.994;14.052;2022-08-21T17:46:39;3.13;;;2.00;;
65275;SDS011;51875;49.994;14.052;2022-08-21T17:47:55;3.03;;;2.03;;
65275;SDS011;51875;49.994;14.052;2022-08-21T17:49:11;6.00;;;2.50;;
65275;SDS011;51875;49.994;14.052;2022-08-21T17:50:29;4.03;;;2.08;;
65275;SDS011;51875;49.994;14.052;2022-08-21T17:51:45;4.40;;;1.80;;
65275;SDS011;51875;49.994;14.052;2022-08-21T17:53:00;4.53;;;2.08;;
65275;SDS011;51875;49.994;14.052;2022-08-21T17:54:16;4.68;;;2.15;;
65275;SDS011;51875;49.994;14.052;2022-08-21T17:55:32;3.63;;;2.53;;
65275;SDS011;51875;49.994;14.052;2022-08-21T17:56:48;3.70;;;2.17;;
65275;SDS011;51875;49.994;14.052;2022-08-21T17:58:04;4.13;;;2.20;;
65275;SDS011;51875;49.994;14.052;2022-08-21T17:59:21;3.92;;;1.90;;
65275;SDS011;51875;49.994;14.052;2022-08-21T18:00:39;3.72;;;2.10;;
65275;SDS011;51875;49.994;14.052;2022-08-21T18:01:55;3.75;;;2.10;;
65275;SDS011;51875;49.994;14.052;2022-08-21T18:03:17;4.15;;;2.25;;
65275;SDS011;51875;49.994;14.052;2022-08-21T18:04:35;2.22;;;2.03;;
65275;SDS011;51875;49.994;14.052;2022-08-21T18:05:51;6.18;;;2.30;;
65275;SDS011;51875;49.994;14.052;2022-08-21T18:07:09;4.32;;;2.20;;
65275;SDS011;51875;49.994;14.052;2022-08-21T18:08:25;3.47;;;2.10;;
65275;SDS011;51875;49.994;14.052;2022-08-21T18:09:40;3.17;;;2.00;;
65275;SDS011;51875;49.994;14.052;2022-08-21T18:10:56;3.78;;;2.17;;
65275;SDS011;51875;49.994;14.052;2022-08-21T18:12:13;4.15;;;2.05;;
65275;SDS011;51875;49.994;14.052;2022-08-21T18:13:30;2.40;;;2.03;;
65275;SDS011;51875;49.994;14.052;2022-08-21T18:14:49;4.00;;;2.00;;
65275;SDS011;51875;49.994;14.052;2022-08-21T18:16:04;4.53;;;2.95;;
65275;SDS011;51875;49.994;14.052;2022-08-21T18:17:22;2.67;;;2.00;;
65275;SDS011;51875;49.994;14.052;2022-08-21T18:18:39;3.60;;;2.20;;
65275;SDS011;51875;49.994;14.052;2022-08-21T18:19:57;5.57;;;2.58;;
65275;SDS011;51875;49.994;14.052;2022-08-21T18:21:13;4.53;;;2.17;;
65275;SDS011;51875;49.994;14.052;2022-08-21T18:22:29;3.33;;;1.95;;
65275;SDS011;51875;49.994;14.052;2022-08-21T18:23:45;4.05;;;2.45;;
65275;SDS011;51875;49.994;14.052;2022-08-21T18:25:01;6.07;;;2.50;;
65275;SDS011;51875;49.994;14.052;2022-08-21T18:26:19;4.20;;;2.22;;
65275;SDS011;51875;49.994;14.052;2022-08-21T18:27:42;5.15;;;2.45;;
65275;SDS011;51875;49.994;14.052;2022-08-21T18:29:00;2.63;;;1.90;;
65275;SDS011;51875;49.994;14.052;2022-08-21T18:30:20;3.85;;;2.00;;
65275;SDS011;51875;49.994;14.052;2022-08-21T18:31:37;3.13;;;2.40;;
65275;SDS011;51875;49.994;14.052;2022-08-21T18:32:54;4.47;;;2.20;;
65275;SDS011;51875;49.994;14.052;2022-08-21T18:34:31;5.60;;;2.40;;
65275;SDS011;51875;49.994;14.052;2022-08-21T18:35:48;6.20;;;2.30;;
65275;SDS011;51875;49.994;14.052;2022-08-21T18:37:04;4.75;;;2.22;;
65275;SDS011;51875;49.994;14.052;2022-08-21T18:38:20;7.85;;;2.60;;
65275;SDS011;51875;49.994;14.052;2022-08-21T18:39:35;5.85;;;2.58;;
65275;SDS011;51875;49.994;14.052;2022-08-21T18:40:51;6.55;;;2.72;;
65275;SDS011;51875;49.994;14.052;2022-08-21T18:42:08;5.78;;;2.80;;
65275;SDS011;51875;49.994;14.052;2022-08-21T18:43:26;4.78;;;2.35;;
65275;SDS011;51875;49.994;14.052;2022-08-21T18:44:45;3.55;;;2.53;;
65275;SDS011;51875;49.994;14.052;2022-08-21T18:46:03;3.13;;;2.60;;
65275;SDS011;51875;49.994;14.052;2022-08-21T18:47:20;3.22;;;2.40;;
65275;SDS011;51875;49.994;14.052;2022-08-21T18:48:43;6.55;;;2.33;;
65275;SDS011;51875;49.994;14.052;2022-08-21T18:49:58;4.97;;;2.22;;
65275;SDS011;51875;49.994;14.052;2022-08-21T18:51:14;5.03;;;2.75;;
65275;SDS011;51875;49.994;14.052;2022-08-21T18:52:30;3.45;;;2.10;;
65275;SDS011;51875;49.994;14.052;2022-08-21T18:53:45;3.25;;;2.30;;
65275;SDS011;51875;49.994;14.052;2022-08-21T18:55:02;6.55;;;2.65;;
65275;SDS011;51875;49.994;14.052;2022-08-21T18:56:18;5.25;;;2.63;;
65275;SDS011;51875;49.994;14.052;2022-08-21T18:57:34;5.90;;;2.65;;
65275;SDS011;51875;49.994;14.052;2022-08-21T18:58:52;4.22;;;2.50;;
65275;SDS011;51875;49.994;14.052;2022-08-21T19:00:15;7.65;;;3.17;;
65275;SDS011;51875;49.994;14.052;2022-08-21T19:01:33;6.90;;;3.10;;
65275;SDS011;51875;49.994;14.052;2022-08-21T19:02:49;5.95;;;2.40;;
65275;SDS011;51875;49.994;14.052;2022-08-21T19:04:05;3.80;;;2.75;;
65275;SDS011;51875;49.994;14.052;2022-08-21T19:05:22;8.10;;;2.42;;
65275;SDS011;51875;49.994;14.052;2022-08-21T19:06:38;7.05;;;2.75;;
65275;SDS011;51875;49.994;14.052;2022-08-21T19:07:54;4.38;;;3.13;;
65275;SDS011;51875;49.994;14.052;2022-08-21T19:09:10;3.53;;;2.80;;
65275;SDS011;51875;49.994;14.052;2022-08-21T19:10:26;4.40;;;2.70;;
65275;SDS011;51875;49.994;14.052;2022-08-21T19:11:43;8.73;;;3.35;;
65275;SDS011;51875;49.994;14.052;2022-08-21T19:12:59;5.22;;;2.67;;
65275;SDS011;51875;49.994;14.052;2022-08-21T19:14:17;4.55;;;2.50;;
65275;SDS011;51875;49.994;14.052;2022-08-21T19:15:32;5.10;;;2.90;;
65275;SDS011;51875;49.994;14.052;2022-08-21T19:16:49;4.70;;;2.70;;
65275;SDS011;51875;49.994;14.052;2022-08-21T19:18:06;5.72;;;3.00;;
65275;SDS011;51875;49.994;14.052;2022-08-21T19:19:25;5.75;;;2.88;;
65275;SDS011;51875;49.994;14.052;2022-08-21T19:20:41;5.65;;;2.80;;
65275;SDS011;51875;49.994;14.052;2022-08-21T19:21:58;4.38;;;2.47;;
65275;SDS011;51875;49.994;14.052;2022-08-21T19:23:15;6.28;;;2.50;;
65275;SDS011;51875;49.994;14.052;2022-08-21T19:24:31;4.25;;;2.50;;
65275;SDS011;51875;49.994;14.052;2022-08-21T19:25:48;5.07;;;3.00;;
65275;SDS011;51875;49.994;14.052;2022-08-21T19:27:04;4.95;;;2.60;;
65275;SDS011;51875;49.994;14.052;2022-08-21T19:28:21;4.68;;;2.70;;
65275;SDS011;51875;49.994;14.052;2022-08-21T19:29:50;4.90;;;2.65;;
65275;SDS011;51875;49.994;14.052;2022-08-21T19:31:10;4.97;;;3.08;;
65275;SDS011;51875;49.994;14.052;2022-08-21T19:32:28;5.35;;;2.70;;
65275;SDS011;51875;49.994;14.052;2022-08-21T19:33:47;4.40;;;2.38;;
65275;SDS011;51875;49.994;14.052;2022-08-21T19:35:05;3.72;;;2.63;;
65275;SDS011;51875;49.994;14.052;2022-08-21T19:36:22;7.50;;;3.10;;
65275;SDS011;51875;49.994;14.052;2022-08-21T19:37:37;3.15;;;2.65;;
65275;SDS011;51875;49.994;14.052;2022-08-21T19:38:53;3.28;;;2.53;;
65275;SDS011;51875;49.994;14.052;2022-08-21T19:40:09;4.25;;;2.40;;
65275;SDS011;51875;49.994;14.052;2022-08-21T19:41:27;3.20;;;2.63;;
65275;SDS011;51875;49.994;14.052;2022-08-21T19:42:47;4.68;;;2.47;;
65275;SDS011;51875;49.994;14.052;2022-08-21T19:44:03;3.50;;;2.70;;
65275;SDS011;51875;49.994;14.052;2022-08-21T19:45:22;3.55;;;2.78;;
65275;SDS011;51875;49.994;14.052;2022-08-21T19:46:39;2.97;;;2.60;;
65275;SDS011;51875;49.994;14.052;2022-08-21T19:47:56;3.92;;;2.70;;
65275;SDS011;51875;49.994;14.052;2022-08-21T19:49:13;3.60;;;2.50;;
65275;SDS011;51875;49.994;14.052;2022-08-21T19:50:30;3.38;;;2.35;;
65275;SDS011;51875;49.994;14.052;2022-08-21T19:51:46;4.32;;;2.50;;
65275;SDS011;51875;49.994;14.052;2022-08-21T19:53:02;6.10;;;2.38;;
65275;SDS011;51875;49.994;14.052;2022-08-21T19:54:21;5.00;;;2.70;;
65275;SDS011;51875;49.994;14.052;2022-08-21T19:55:41;4.00;;;2.47;;
65275;SDS011;51875;49.994;14.052;2022-08-21T19:57:00;4.50;;;2.33;;
65275;SDS011;51875;49.994;14.052;2022-08-21T19:58:23;5.38;;;2.10;;